| time (UTC) | temp C | wind direction | speed KPH | gust KPH | rain 1hr cm | rain 24hr cm | rain mn cm | humidity % | barometer mb |
| 20260906083505 | 20 | 89 | 3.2 | 8.0 | 0.00 | 0.00 | 0.00 | 99 | 1017.4 |
| 20260906083004 | 20 | 73 | 4.8 | 8.0 | 0.00 | 0.00 | 0.00 | 99 | 1017.6 |
| 20260906082500 | 20 | 52 | 1.6 | 8.0 | 0.00 | 0.00 | 0.00 | 99 | 1017.2 |
| 20260906081955 | 20 | 55 | 1.6 | 4.8 | 0.00 | 0.00 | 0.00 | 99 | 1017.5 |
| 20260906081450 | 20 | 89 | 0.0 | 9.7 | 0.00 | 0.00 | 0.00 | 99 | 1017.5 |
| 20260906080946 | 20 | 22 | 3.2 | 8.0 | 0.00 | 0.00 | 0.00 | 99 | 1017.4 |
| 20260906080442 | 20 | 61 | 4.8 | 9.7 | 0.00 | 0.00 | 0.00 | 99 | 1017.3 |
| 20260906075937 | 20 | 86 | 3.2 | 8.0 | 0.00 | 0.00 | 0.00 | 99 | 1017.3 |
| 20260906075432 | 20 | 88 | 0.0 | 6.4 | 0.00 | 0.00 | 0.00 | 98 | 1017.2 |
| 20260906074927 | 20 | 81 | 6.4 | 9.7 | 0.00 | 0.00 | 0.00 | 98 | 1017.3 |
| 20260906074427 | 20 | 61 | 6.4 | 12.9 | 0.00 | 0.00 | 0.00 | 98 | 1017.2 |
| 20260906073926 | 20 | 79 | 4.8 | 6.4 | 0.00 | 0.00 | 0.00 | 98 | 1017.3 |
| 20260906073421 | 20 | 84 | 0.0 | 8.0 | 0.00 | 0.00 | 0.00 | 97 | 1017.3 |
| 20260906072917 | 21 | 77 | 4.8 | 12.9 | 0.00 | 0.00 | 0.00 | 97 | 1017.2 |
| 20260906072412 | 21 | 24 | 3.2 | 14.5 | 0.00 | 0.00 | 0.00 | 97 | 1017.3 |
| 20260906071908 | 21 | 71 | 3.2 | 8.0 | 0.00 | 0.00 | 0.00 | 97 | 1017.6 |
| 20260906071403 | 21 | 57 | 4.8 | 12.9 | 0.00 | 0.00 | 0.00 | 96 | 1017.5 |
| 20260906070859 | 21 | 65 | 6.4 | 17.7 | 0.00 | 0.00 | 0.00 | 96 | 1017.3 |
| 20260906070355 | 21 | 31 | 4.8 | 16.1 | 0.00 | 0.00 | 0.00 | 95 | 1017.6 |
| 20260906065850 | 21 | 81 | 4.8 | 14.5 | 0.00 | 0.00 | 0.00 | 95 | 1017.7 |
| 20260906065344 | 21 | 71 | 4.8 | 11.3 | 0.00 | 0.00 | 0.00 | 95 | 1017.8 |
| 20260906064840 | 21 | 84 | 8.0 | 14.5 | 0.00 | 0.00 | 0.00 | 95 | 1017.7 |
| 20260906064336 | 21 | 83 | 8.0 | 17.7 | 0.00 | 0.00 | 0.00 | 95 | 1017.8 |
| 20260906063831 | 21 | 84 | 8.0 | 14.5 | 0.00 | 0.00 | 0.00 | 96 | 1017.5 |
| 20260906063326 | 21 | 79 | 16.1 | 17.7 | 0.00 | 0.00 | 0.00 | 96 | 1017.6 |
| 20260906062821 | 21 | 84 | 6.4 | 14.5 | 0.00 | 0.00 | 0.00 | 96 | 1017.4 |
| 20260906062320 | 22 | 90 | 6.4 | 14.5 | 0.00 | 0.00 | 0.00 | 96 | 1017.3 |
| 20260906061816 | 22 | 68 | 6.4 | 17.7 | 0.00 | 0.00 | 0.00 | 96 | 1017.3 |
| 20260906061312 | 22 | 99 | 4.8 | 14.5 | 0.00 | 0.00 | 0.00 | 96 | 1017.1 |
| 20260906060807 | 22 | 93 | 4.8 | 14.5 | 0.00 | 0.00 | 0.00 | 95 | 1017.4 |
| 20260906060305 | 22 | 75 | 6.4 | 20.9 | 0.00 | 0.00 | 0.00 | 95 | 1017.7 |
| 20260906055800 | 22 | 53 | 4.8 | 20.9 | 0.00 | 0.00 | 0.00 | 95 | 1017.3 |
| 20260906055255 | 22 | 66 | 9.7 | 32.2 | 0.00 | 0.00 | 0.00 | 96 | 1017.6 |
| 20260906054750 | 22 | 77 | 3.2 | 8.0 | 0.00 | 0.00 | 0.00 | 97 | 1017.7 |
| 20260906054246 | 22 | 67 | 4.8 | 17.7 | 0.00 | 0.00 | 0.00 | 96 | 1017.7 |
| 20260906053743 | 22 | 85 | 4.8 | 11.3 | 0.00 | 0.00 | 0.00 | 96 | 1017.6 |
| 20260906053238 | 22 | 89 | 8.0 | 14.5 | 0.00 | 0.00 | 0.00 | 96 | 1017.5 |
| 20260906052733 | 22 | 94 | 4.8 | 11.3 | 0.00 | 0.00 | 0.00 | 96 | 1017.5 |
| 20260906052229 | 22 | 101 | 3.2 | 11.3 | 0.00 | 0.00 | 0.00 | 96 | 1017.4 |
| 20260906051726 | 22 | 80 | 8.0 | 17.7 | 0.00 | 0.00 | 0.00 | 96 | 1017.4 |
| 20260906051225 | 22 | 93 | 3.2 | 11.3 | 0.00 | 0.00 | 0.00 | 96 | 1017.4 |
| 20260906050720 | 22 | 70 | 6.4 | 11.3 | 0.00 | 0.00 | 0.00 | 95 | 1017.2 |
| 20260906050216 | 22 | 89 | 11.3 | 14.5 | 0.00 | 0.00 | 0.00 | 95 | 1017.4 |
| 20260906045714 | 22 | 104 | 4.8 | 11.3 | 0.00 | 0.00 | 0.00 | 95 | 1017.3 |
| 20260906045209 | 23 | 95 | 6.4 | 8.0 | 0.00 | 0.00 | 0.00 | 94 | 1017.4 |
| 20260906044705 | 23 | 38 | 0.0 | 6.4 | 0.00 | 0.00 | 0.00 | 94 | 1017.4 |
| 20260906044200 | 23 | 49 | 0.0 | 6.4 | 0.00 | 0.00 | 0.00 | 93 | 1017.5 |
| 20260906043656 | 23 | 178 | 0.0 | 8.0 | 0.00 | 0.00 | 0.00 | 93 | 1017.4 |
| 20260906043152 | 23 | 48 | 4.8 | 8.0 | 0.00 | 0.00 | 0.00 | 93 | 1017.3 |
| 20260906042651 | 23 | 16 | 1.6 | 8.0 | 0.00 | 0.00 | 0.00 | 92 | 1016.9 |
| 20260906042145 | 23 | 35 | 4.8 | 12.9 | 0.00 | 0.00 | 0.00 | 92 | 1017.0 |
| 20260906041641 | 23 | 51 | 4.8 | 8.0 | 0.00 | 0.00 | 0.00 | 92 | 1016.7 |
| 20260906041136 | 23 | 61 | 6.4 | 12.9 | 0.00 | 0.00 | 0.00 | 92 | 1016.6 |
| 20260906040631 | 23 | 14 | 3.2 | 12.9 | 0.00 | 0.00 | 0.00 | 92 | 1016.7 |
| 20260906040127 | 23 | 0 | 0.0 | 12.9 | 0.00 | 0.00 | 0.00 | 92 | 1016.6 |
| 20260906035622 | 23 | 60 | 3.2 | 8.0 | 0.00 | 0.00 | 0.00 | 92 | 1016.5 |
| 20260906035117 | 23 | 44 | 1.6 | 4.8 | 0.00 | 0.00 | 0.00 | 92 | 1016.7 |
| 20260906034612 | 23 | 4 | 4.8 | 6.4 | 0.00 | 0.00 | 0.00 | 92 | 1016.5 |
| 20260906034107 | 23 | 69 | 1.6 | 8.0 | 0.00 | 0.00 | 0.00 | 92 | 1016.2 |
| 20260906033602 | 23 | 58 | 3.2 | 6.4 | 0.00 | 0.00 | 0.00 | 93 | 1016.3 |
| 20260906033057 | 23 | 0 | 0.0 | 4.8 | 0.00 | 0.00 | 0.00 | 93 | 1016.4 |
| 20260906032554 | 23 | 25 | 0.0 | 1.6 | 0.00 | 0.00 | 0.00 | 93 | 1016.3 |
| 20260906032053 | 23 | 73 | 0.0 | 3.2 | 0.00 | 0.00 | 0.00 | 93 | 1016.4 |
| 20260906031549 | 23 | 0 | 0.0 | 3.2 | 0.00 | 0.00 | 0.00 | 94 | 1016.3 |
| 20260906031045 | 23 | 343 | 0.0 | 3.2 | 0.00 | 0.00 | 0.00 | 94 | 1016.3 |
| 20260906030544 | 23 | 354 | 0.0 | 3.2 | 0.00 | 0.00 | 0.00 | 94 | 1016.0 |
| 20260906030043 | 22 | 334 | 0.0 | 3.2 | 0.00 | 0.00 | 0.00 | 94 | 1016.2 |
| 20260906025538 | 22 | 315 | 0.0 | 3.2 | 0.00 | 0.00 | 0.00 | 94 | 1016.1 |
| 20260906025036 | 22 | 48 | 0.0 | 3.2 | 0.00 | 0.00 | 0.00 | 94 | 1016.0 |
| 20260906024532 | 22 | 304 | 0.0 | 1.6 | 0.00 | 0.00 | 0.00 | 94 | 1015.9 |
| 20260906024031 | 22 | 62 | 0.0 | 0.0 | 0.00 | 0.00 | 0.00 | 94 | 1016.0 |
| 20260906023528 | 22 | 63 | 0.0 | 3.2 | 0.00 | 0.00 | 0.00 | 94 | 1015.9 |
| 20260906023023 | 22 | 180 | 0.0 | 0.0 | 0.00 | 0.00 | 0.00 | 94 | 1016.1 |
| 20260906022518 | 22 | 122 | 3.2 | 4.8 | 0.00 | 0.00 | 0.00 | 94 | 1015.8 |
| 20260906022013 | 23 | 52 | 0.0 | 4.8 | 0.00 | 0.00 | 0.00 | 93 | 1015.8 |
| 20260906021508 | 23 | 99 | 0.0 | 6.4 | 0.00 | 0.00 | 0.00 | 93 | 1015.5 |
| 20260906021002 | 23 | 73 | 4.8 | 8.0 | 0.00 | 0.00 | 0.00 | 93 | 1015.5 |
| 20260906020456 | 23 | 75 | 3.2 | 4.8 | 0.00 | 0.00 | 0.00 | 93 | 1015.5 |
| 20260906015955 | 23 | 96 | 3.2 | 4.8 | 0.00 | 0.00 | 0.00 | 92 | 1015.5 |
| 20260906015450 | 23 | 66 | 8.0 | 11.3 | 0.00 | 0.00 | 0.00 | 92 | 1015.6 |
| 20260906014950 | 23 | 94 | 6.4 | 9.7 | 0.00 | 0.00 | 0.00 | 92 | 1015.4 |
| 20260906014449 | 23 | 52 | 3.2 | 8.0 | 0.00 | 0.00 | 0.00 | 92 | 1015.3 |
| 20260906013946 | 23 | 85 | 0.0 | 11.3 | 0.00 | 0.00 | 0.00 | 92 | 1015.2 |
| 20260906013441 | 23 | 113 | 1.6 | 8.0 | 0.00 | 0.00 | 0.00 | 91 | 1015.2 |
| 20260906012936 | 23 | 87 | 4.8 | 11.3 | 0.00 | 0.00 | 0.00 | 91 | 1015.1 |
| 20260906012431 | 23 | 44 | 4.8 | 8.0 | 0.00 | 0.00 | 0.00 | 91 | 1015.0 |
| 20260906011930 | 23 | 84 | 6.4 | 8.0 | 0.00 | 0.00 | 0.00 | 91 | 1015.1 |
| 20260906011426 | 23 | 102 | 1.6 | 9.7 | 0.00 | 0.00 | 0.00 | 91 | 1015.1 |
| 20260906010921 | 23 | 39 | 3.2 | 11.3 | 0.00 | 0.00 | 0.00 | 90 | 1015.1 |
| 20260906010417 | 24 | 57 | 4.8 | 12.9 | 0.00 | 0.00 | 0.00 | 90 | 1015.1 |
| 20260906005913 | 24 | 43 | 8.0 | 9.7 | 0.00 | 0.00 | 0.00 | 90 | 1015.4 |
| 20260906005412 | 24 | 48 | 4.8 | 12.9 | 0.00 | 0.00 | 0.00 | 91 | 1015.3 |
| 20260906004910 | 24 | 81 | 4.8 | 14.5 | 0.00 | 0.00 | 0.00 | 90 | 1015.2 |
| 20260906004405 | 25 | 84 | 8.0 | 14.5 | 0.00 | 0.00 | 0.00 | 89 | 1015.2 |
| 20260906003900 | 25 | 64 | 8.0 | 12.9 | 0.00 | 0.00 | 0.00 | 88 | 1015.3 |
| 20260906003356 | 25 | 38 | 11.3 | 11.3 | 0.00 | 0.00 | 0.00 | 87 | 1015.3 |
| 20260906002851 | 25 | 27 | 8.0 | 14.5 | 0.00 | 0.00 | 0.00 | 86 | 1015.4 |
| 20260906002350 | 25 | 71 | 11.3 | 12.9 | 0.00 | 0.00 | 0.00 | 85 | 1015.3 |
| 20260906001846 | 26 | 62 | 8.0 | 16.1 | 0.00 | 0.00 | 0.00 | 85 | 1015.1 |
| 20260906001342 | 26 | 62 | 4.8 | 14.5 | 0.00 | 0.00 | 0.00 | 84 | 1015.3 |
| 20260906000836 | 26 | 99 | 4.8 | 14.5 | 0.00 | 0.00 | 0.00 | 84 | 1015.5 |
| 20260906000333 | 26 | 31 | 3.2 | 12.9 | 0.00 | 0.00 | 0.00 | 84 | 1015.5 |
| 20260905235831 | 26 | 40 | 3.2 | 9.7 | 0.00 | 0.00 | 0.00 | 84 | 1015.2 |
| 20260905235326 | 27 | 75 | 6.4 | 16.1 | 0.00 | 0.00 | 0.00 | 84 | 1015.4 |
| 20260905234821 | 27 | 46 | 8.0 | 20.9 | 0.00 | 0.00 | 0.00 | 83 | 1015.1 |
| 20260905234316 | 27 | 73 | 9.7 | 16.1 | 0.00 | 0.00 | 0.00 | 82 | 1015.1 |
| 20260905233811 | 27 | 105 | 6.4 | 20.9 | 0.00 | 0.00 | 0.00 | 82 | 1015.0 |
| 20260905233306 | 28 | 73 | 6.4 | 17.7 | 0.00 | 0.00 | 0.00 | 81 | 1015.1 |
| 20260905232804 | 28 | 60 | 8.0 | 16.1 | 0.00 | 0.00 | 0.00 | 81 | 1014.9 |
| 20260905232300 | 28 | 59 | 3.2 | 30.6 | 0.00 | 0.00 | 0.00 | 81 | 1014.9 |
| 20260905231751 | 28 | 59 | 8.0 | 19.3 | 0.00 | 0.00 | 0.00 | 81 | 1014.9 |
| 20260905231246 | 28 | 77 | 8.0 | 16.1 | 0.00 | 0.00 | 0.00 | 81 | 1014.9 |
| 20260905230742 | 29 | 105 | 1.6 | 11.3 | 0.00 | 0.00 | 0.00 | 80 | 1014.7 |
| 20260905230240 | 28 | 74 | 6.4 | 14.5 | 0.00 | 0.00 | 0.00 | 80 | 1014.9 |
| 20260905225740 | 29 | 242 | 1.6 | 14.5 | 0.00 | 0.00 | 0.00 | 80 | 1014.8 |
| 20260905225235 | 29 | 358 | 6.4 | 12.9 | 0.00 | 0.00 | 0.00 | 80 | 1014.8 |
| 20260905224734 | 29 | 350 | 1.6 | 16.1 | 0.00 | 0.00 | 0.00 | 80 | 1015.2 |
| 20260905224230 | 30 | 334 | 9.7 | 14.5 | 0.00 | 0.00 | 0.00 | 79 | 1015.1 |
| 20260905223726 | 29 | 39 | 4.8 | 16.1 | 0.00 | 0.00 | 0.00 | 80 | 1015.0 |
| 20260905223223 | 30 | 76 | 4.8 | 17.7 | 0.00 | 0.00 | 0.00 | 79 | 1015.0 |
| 20260905222718 | 30 | 53 | 6.4 | 17.7 | 0.00 | 0.00 | 0.00 | 79 | 1015.0 |
| 20260905222217 | 30 | 19 | 9.7 | 11.3 | 0.00 | 0.00 | 0.00 | 78 | 1014.9 |
| 20260905221713 | 30 | 340 | 3.2 | 12.9 | 0.00 | 0.00 | 0.00 | 77 | 1014.7 |
| 20260905221210 | 30 | 41 | 6.4 | 12.9 | 0.00 | 0.00 | 0.00 | 77 | 1014.9 |
| 20260905220705 | 30 | 0 | 9.7 | 16.1 | 0.00 | 0.00 | 0.00 | 77 | 1014.7 |
| 20260905220201 | 30 | 66 | 4.8 | 16.1 | 0.00 | 0.00 | 0.00 | 77 | 1014.7 |
| 20260905215700 | 30 | 4 | 6.4 | 17.7 | 0.00 | 0.00 | 0.00 | 78 | 1014.5 |
| 20260905215156 | 30 | 32 | 11.3 | 17.7 | 0.00 | 0.00 | 0.00 | 78 | 1014.9 |
| 20260905214652 | 30 | 357 | 6.4 | 12.9 | 0.00 | 0.00 | 0.00 | 78 | 1014.7 |
| 20260905214147 | 30 | 72 | 4.8 | 16.1 | 0.00 | 0.00 | 0.00 | 78 | 1015.0 |
| 20260905213642 | 30 | 55 | 9.7 | 12.9 | 0.00 | 0.00 | 0.00 | 77 | 1014.9 |
| 20260905213138 | 31 | 35 | 6.4 | 12.9 | 0.00 | 0.00 | 0.00 | 76 | 1014.9 |
| 20260905212633 | 30 | 355 | 1.6 | 12.9 | 0.00 | 0.00 | 0.00 | 78 | 1014.7 |
| 20260905212132 | 31 | 54 | 6.4 | 16.1 | 0.00 | 0.00 | 0.00 | 76 | 1014.6 |
| 20260905211627 | 31 | 34 | 6.4 | 16.1 | 0.00 | 0.00 | 0.00 | 77 | 1014.6 |
| 20260905211123 | 31 | 43 | 6.4 | 22.5 | 0.00 | 0.00 | 0.00 | 77 | 1014.6 |
| 20260905210619 | 31 | 54 | 8.0 | 17.7 | 0.00 | 0.00 | 0.00 | 76 | 1014.3 |
| 20260905210114 | 31 | 72 | 9.7 | 19.3 | 0.00 | 0.00 | 0.00 | 76 | 1014.3 |
| 20260905205613 | 32 | 15 | 6.4 | 12.9 | 0.00 | 0.00 | 0.00 | 75 | 1014.5 |
| 20260905205112 | 32 | 65 | 17.7 | 20.9 | 0.00 | 0.00 | 0.00 | 75 | 1014.5 |
| 20260905204606 | 32 | 1 | 4.8 | 19.3 | 0.00 | 0.00 | 0.00 | 75 | 1014.8 |
| 20260905204101 | 32 | 331 | 0.0 | 17.7 | 0.00 | 0.00 | 0.00 | 76 | 1014.6 |
| 20260905203556 | 32 | 25 | 6.4 | 17.7 | 0.00 | 0.00 | 0.00 | 77 | 1014.6 |
| 20260905203052 | 31 | 91 | 8.0 | 19.3 | 0.00 | 0.00 | 0.00 | 77 | 1014.8 |
| 20260905202547 | 32 | 39 | 6.4 | 19.3 | 0.00 | 0.00 | 0.00 | 75 | 1014.6 |
| 20260905202042 | 33 | 349 | 1.6 | 9.7 | 0.00 | 0.00 | 0.00 | 72 | 1014.8 |
| 20260905201538 | 32 | 48 | 4.8 | 11.3 | 0.00 | 0.00 | 0.00 | 73 | 1014.6 |
| 20260905201037 | 33 | 32 | 6.4 | 22.5 | 0.00 | 0.00 | 0.00 | 72 | 1014.8 |
| 20260905200533 | 33 | 75 | 9.7 | 14.5 | 0.00 | 0.00 | 0.00 | 72 | 1014.8 |
| 20260905200032 | 32 | 41 | 1.6 | 9.7 | 0.00 | 0.00 | 0.00 | 73 | 1014.6 |
| 20260905195526 | 32 | 324 | 4.8 | 19.3 | 0.00 | 0.00 | 0.00 | 71 | 1014.7 |
| 20260905195022 | 33 | 39 | 4.8 | 11.3 | 0.00 | 0.00 | 0.00 | 68 | 1014.4 |
| 20260905194521 | 33 | 55 | 6.4 | 9.7 | 0.00 | 0.00 | 0.00 | 68 | 1014.7 |
| 20260905194015 | 33 | 65 | 11.3 | 17.7 | 0.00 | 0.00 | 0.00 | 68 | 1014.9 |
| 20260905193510 | 33 | 57 | 4.8 | 14.5 | 0.00 | 0.00 | 0.00 | 70 | 1014.8 |
| 20260905193005 | 33 | 292 | 3.2 | 16.1 | 0.00 | 0.00 | 0.00 | 70 | 1014.5 |
| 20260905192500 | 33 | 47 | 6.4 | 16.1 | 0.00 | 0.00 | 0.00 | 68 | 1014.8 |
| 20260905191956 | 33 | 357 | 0.0 | 6.4 | 0.00 | 0.00 | 0.00 | 69 | 1014.8 |
| 20260905191455 | 33 | 38 | 1.6 | 8.0 | 0.00 | 0.00 | 0.00 | 70 | 1014.8 |
| 20260905190954 | 33 | 287 | 6.4 | 11.3 | 0.00 | 0.00 | 0.00 | 70 | 1014.9 |
| 20260905190452 | 34 | 68 | 4.8 | 9.7 | 0.00 | 0.00 | 0.00 | 68 | 1014.9 |
| 20260905185951 | 34 | 32 | 3.2 | 6.4 | 0.00 | 0.00 | 0.00 | 68 | 1014.8 |
| 20260905185447 | 33 | 289 | 3.2 | 8.0 | 0.00 | 0.00 | 0.00 | 72 | 1014.9 |
| 20260905184945 | 32 | 53 | 3.2 | 11.3 | 0.00 | 0.00 | 0.00 | 74 | 1015.1 |
| 20260905184440 | 32 | 21 | 3.2 | 9.7 | 0.00 | 0.00 | 0.00 | 72 | 1014.9 |
| 20260905183938 | 33 | 76 | 4.8 | 9.7 | 0.00 | 0.00 | 0.00 | 70 | 1015.0 |
| 20260905183433 | 33 | 350 | 1.6 | 8.0 | 0.00 | 0.00 | 0.00 | 70 | 1014.9 |
| 20260905182928 | 33 | 37 | 1.6 | 17.7 | 0.00 | 0.00 | 0.00 | 69 | 1015.0 |
| 20260905182427 | 33 | 13 | 4.8 | 11.3 | 0.00 | 0.00 | 0.00 | 70 | 1014.9 |
| 20260905181923 | 33 | 30 | 0.0 | 8.0 | 0.00 | 0.00 | 0.00 | 71 | 1014.9 |
| 20260905181418 | 33 | 314 | 3.2 | 9.7 | 0.00 | 0.00 | 0.00 | 71 | 1014.9 |
| 20260905180918 | 33 | 46 | 3.2 | 6.4 | 0.00 | 0.00 | 0.00 | 71 | 1015.0 |
| 20260905180413 | 33 | 340 | 1.6 | 8.0 | 0.00 | 0.00 | 0.00 | 71 | 1015.0 |
| 20260905175913 | 33 | 243 | 4.8 | 9.7 | 0.00 | 0.00 | 0.00 | 70 | 1015.2 |
| 20260905175412 | 33 | 347 | 3.2 | 6.4 | 0.00 | 0.00 | 0.00 | 70 | 1015.3 |
| 20260905174907 | 33 | 41 | 4.8 | 12.9 | 0.00 | 0.00 | 0.00 | 71 | 1015.1 |
| 20260905174403 | 33 | 320 | 3.2 | 11.3 | 0.00 | 0.00 | 0.00 | 70 | 1015.0 |
| 20260905173858 | 32 | 67 | 4.8 | 11.3 | 0.00 | 0.00 | 0.00 | 71 | 1015.4 |
| 20260905173355 | 33 | 6 | 0.0 | 8.0 | 0.00 | 0.00 | 0.00 | 71 | 1015.2 |
| 20260905172849 | 34 | 43 | 14.5 | 14.5 | 0.00 | 0.00 | 0.00 | 68 | 1015.4 |
| 20260905172347 | 33 | 145 | 4.8 | 6.4 | 0.00 | 0.00 | 0.00 | 70 | 1015.1 |
| 20260905171843 | 32 | 19 | 1.6 | 8.0 | 0.00 | 0.00 | 0.00 | 71 | 1015.4 |
| 20260905171340 | 33 | 1 | 4.8 | 12.9 | 0.00 | 0.00 | 0.00 | 70 | 1015.6 |
| 20260905170836 | 32 | 116 | 3.2 | 12.9 | 0.00 | 0.00 | 0.00 | 72 | 1015.6 |
| 20260905170332 | 33 | 204 | 0.0 | 11.3 | 0.00 | 0.00 | 0.00 | 70 | 1015.4 |
| 20260905165831 | 33 | 105 | 4.8 | 11.3 | 0.00 | 0.00 | 0.00 | 72 | 1015.6 |
| 20260905165327 | 32 | 105 | 4.8 | 11.3 | 0.00 | 0.00 | 0.00 | 72 | 1015.6 |
| 20260905164826 | 32 | 17 | 1.6 | 8.0 | 0.00 | 0.00 | 0.00 | 72 | 1015.5 |
| 20260905164321 | 32 | 357 | 0.0 | 11.3 | 0.00 | 0.00 | 0.00 | 73 | 1015.7 |
| 20260905163817 | 33 | 20 | 4.8 | 9.7 | 0.00 | 0.00 | 0.00 | 72 | 1015.5 |
| 20260905163313 | 32 | 58 | 6.4 | 8.0 | 0.00 | 0.00 | 0.00 | 72 | 1015.6 |
| 20260905162809 | 32 | 55 | 6.4 | 11.3 | 0.00 | 0.00 | 0.00 | 73 | 1015.5 |
| 20260905162309 | 32 | 114 | 1.6 | 11.3 | 0.00 | 0.00 | 0.00 | 72 | 1015.6 |
| 20260905161803 | 32 | 287 | 3.2 | 12.9 | 0.00 | 0.00 | 0.00 | 73 | 1015.5 |
| 20260905161303 | 32 | 79 | 3.2 | 11.3 | 0.00 | 0.00 | 0.00 | 72 | 1015.1 |
| 20260905160801 | 31 | 17 | 4.8 | 11.3 | 0.00 | 0.00 | 0.00 | 75 | 1015.6 |
| 20260905160255 | 31 | 52 | 6.4 | 9.7 | 0.00 | 0.00 | 0.00 | 74 | 1015.4 |
| 20260905155750 | 32 | 67 | 8.0 | 16.1 | 0.00 | 0.00 | 0.00 | 73 | 1015.3 |
| 20260905155249 | 31 | 105 | 0.0 | 14.5 | 0.00 | 0.00 | 0.00 | 75 | 1015.2 |
| 20260905154743 | 31 | 70 | 8.0 | 16.1 | 0.00 | 0.00 | 0.00 | 74 | 1015.4 |
| 20260905154239 | 31 | 85 | 8.0 | 19.3 | 0.00 | 0.00 | 0.00 | 75 | 1015.4 |
| 20260905153735 | 31 | 67 | 8.0 | 12.9 | 0.00 | 0.00 | 0.00 | 75 | 1015.3 |
| 20260905153230 | 31 | 52 | 4.8 | 11.3 | 0.00 | 0.00 | 0.00 | 75 | 1015.4 |
| 20260905152724 | 31 | 13 | 11.3 | 12.9 | 0.00 | 0.00 | 0.00 | 78 | 1015.1 |
| 20260905152219 | 31 | 326 | 3.2 | 11.3 | 0.00 | 0.00 | 0.00 | 77 | 1015.5 |
| 20260905151718 | 31 | 297 | 3.2 | 11.3 | 0.00 | 0.00 | 0.00 | 78 | 1015.4 |
| 20260905151215 | 30 | 45 | 3.2 | 14.5 | 0.00 | 0.00 | 0.00 | 78 | 1015.0 |
| 20260905150710 | 30 | 41 | 4.8 | 11.3 | 0.00 | 0.00 | 0.00 | 79 | 1015.3 |
| 20260905150209 | 31 | 35 | 4.8 | 8.0 | 0.00 | 0.00 | 0.00 | 77 | 1015.0 |
| 20260905145706 | 30 | 303 | 1.6 | 9.7 | 0.00 | 0.00 | 0.00 | 78 | 1015.1 |
| 20260905145202 | 30 | 61 | 4.8 | 11.3 | 0.00 | 0.00 | 0.00 | 77 | 1015.0 |
| 20260905144700 | 30 | 59 | 6.4 | 17.7 | 0.00 | 0.00 | 0.00 | 79 | 1015.0 |
| 20260905144155 | 30 | 357 | 6.4 | 12.9 | 0.00 | 0.00 | 0.00 | 77 | 1014.9 |
| 20260905143654 | 30 | 348 | 1.6 | 11.3 | 0.00 | 0.00 | 0.00 | 78 | 1014.7 |
| 20260905143149 | 30 | 94 | 6.4 | 11.3 | 0.00 | 0.00 | 0.00 | 76 | 1014.8 |
| 20260905142648 | 30 | 10 | 3.2 | 11.3 | 0.00 | 0.00 | 0.00 | 75 | 1014.6 |
| 20260905142148 | 30 | 340 | 1.6 | 8.0 | 0.00 | 0.00 | 0.00 | 78 | 1014.7 |
| 20260905141643 | 29 | 30 | 3.2 | 12.9 | 0.00 | 0.00 | 0.00 | 80 | 1014.7 |
| 20260905141139 | 29 | 25 | 3.2 | 11.3 | 0.00 | 0.00 | 0.00 | 80 | 1014.7 |
| 20260905140633 | 28 | 62 | 3.2 | 8.0 | 0.00 | 0.00 | 0.00 | 82 | 1014.7 |
| 20260905140133 | 28 | 33 | 4.8 | 12.9 | 0.00 | 0.00 | 0.00 | 83 | 1014.6 |
| 20260905135628 | 28 | 23 | 0.0 | 9.7 | 0.00 | 0.00 | 0.00 | 85 | 1014.2 |
| 20260905135124 | 28 | 32 | 3.2 | 11.3 | 0.00 | 0.00 | 0.00 | 84 | 1014.6 |
| 20260905134618 | 28 | 31 | 1.6 | 8.0 | 0.00 | 0.00 | 0.00 | 86 | 1014.3 |
| 20260905134117 | 28 | 55 | 4.8 | 11.3 | 0.00 | 0.00 | 0.00 | 86 | 1014.4 |
| 20260905133613 | 28 | 11 | 3.2 | 11.3 | 0.00 | 0.00 | 0.00 | 87 | 1014.4 |
| 20260905133113 | 28 | 138 | 0.0 | 8.0 | 0.00 | 0.00 | 0.00 | 88 | 1014.5 |
| 20260905132613 | 27 | 53 | 0.0 | 9.7 | 0.00 | 0.00 | 0.00 | 89 | 1014.3 |
| 20260905132107 | 27 | 67 | 3.2 | 12.9 | 0.00 | 0.00 | 0.00 | 91 | 1014.2 |
| 20260905131603 | 26 | 106 | 0.0 | 6.4 | 0.00 | 0.00 | 0.00 | 91 | 1014.3 |
| 20260905131057 | 26 | 342 | 0.0 | 9.7 | 0.00 | 0.00 | 0.00 | 92 | 1014.1 |
| 20260905130557 | 26 | 34 | 1.6 | 8.0 | 0.00 | 0.00 | 0.00 | 91 | 1014.1 |
| 20260905130052 | 27 | 297 | 1.6 | 8.0 | 0.00 | 0.00 | 0.00 | 90 | 1014.1 |
| 20260905125551 | 26 | 18 | 6.4 | 9.7 | 0.00 | 0.00 | 0.00 | 91 | 1013.9 |
| 20260905125047 | 26 | 3 | 0.0 | 8.0 | 0.00 | 0.00 | 0.00 | 91 | 1014.4 |
| 20260905124543 | 26 | 4 | 3.2 | 8.0 | 0.00 | 0.00 | 0.00 | 91 | 1014.2 |
| 20260905124039 | 26 | 27 | 1.6 | 6.4 | 0.00 | 0.00 | 0.00 | 91 | 1014.1 |
| 20260905123534 | 26 | 9 | 1.6 | 8.0 | 0.00 | 0.00 | 0.00 | 91 | 1013.8 |
| 20260905123031 | 26 | 353 | 3.2 | 6.4 | 0.00 | 0.00 | 0.00 | 91 | 1013.5 |
| 20260905122531 | 26 | 6 | 0.0 | 3.2 | 0.00 | 0.00 | 0.00 | 93 | 1013.8 |
| 20260905122026 | 25 | 325 | 0.0 | 3.2 | 0.00 | 0.00 | 0.00 | 95 | 1013.5 |
| 20260905121520 | 25 | 327 | 3.2 | 6.4 | 0.00 | 0.00 | 0.00 | 96 | 1013.5 |
| 20260905121015 | 24 | 356 | 4.8 | 8.0 | 0.00 | 0.00 | 0.00 | 98 | 1013.8 |
| 20260905120509 | 24 | 322 | 3.2 | 6.4 | 0.00 | 0.00 | 0.00 | 99 | 1013.9 |
| 20260905120005 | 23 | 9 | 3.2 | 4.8 | 0.00 | 0.00 | 0.00 | 99 | 1013.7 |
| 20260905115503 | 23 | 322 | 0.0 | 1.6 | 0.00 | 0.00 | 0.00 | 99 | 1013.3 |
| 20260905114958 | 23 | 322 | 0.0 | 0.0 | 0.00 | 0.00 | 0.00 | 99 | 1013.2 |
| 20260905114458 | 23 | 322 | 0.0 | 1.6 | 0.00 | 0.00 | 0.00 | 99 | 1013.2 |
| 20260905113956 | 23 | 284 | 0.0 | 1.6 | 0.00 | 0.00 | 0.00 | 99 | 1013.1 |
| 20260905113452 | 23 | 315 | 0.0 | 3.2 | 0.00 | 0.00 | 0.00 | 99 | 1013.0 |
| 20260905112947 | 23 | 274 | 0.0 | 3.2 | 0.00 | 0.00 | 0.00 | 99 | 1013.0 |
| 20260905112442 | 23 | 283 | 0.0 | 3.2 | 0.00 | 0.00 | 0.00 | 99 | 1013.0 |
| 20260905111938 | 23 | 297 | 0.0 | 1.6 | 0.00 | 0.00 | 0.00 | 99 | 1012.8 |
| 20260905111432 | 23 | 305 | 1.6 | 3.2 | 0.00 | 0.00 | 0.00 | 99 | 1012.9 |
| 20260905110932 | 23 | 288 | 0.0 | 3.2 | 0.00 | 0.00 | 0.00 | 99 | 1012.9 |
| 20260905110425 | 23 | 245 | 0.0 | 1.6 | 0.00 | 0.00 | 0.00 | 99 | 1012.8 |
| 20260905105920 | 23 | 258 | 0.0 | 3.2 | 0.00 | 0.00 | 0.00 | 98 | 1012.8 |
| 20260905105420 | 24 | 297 | 0.0 | 3.2 | 0.00 | 0.00 | 0.00 | 98 | 1013.1 |
| 20260905104919 | 24 | 267 | 3.2 | 3.2 | 0.00 | 0.00 | 0.00 | 99 | 1013.0 |
| 20260905104415 | 24 | 359 | 0.0 | 1.6 | 0.00 | 0.00 | 0.00 | 98 | 1012.8 |
| 20260905103910 | 24 | 333 | 0.0 | 3.2 | 0.00 | 0.00 | 0.00 | 98 | 1013.0 |
| 20260905103406 | 24 | 297 | 0.0 | 1.6 | 0.00 | 0.00 | 0.00 | 98 | 1013.0 |
| 20260905102901 | 24 | 89 | 0.0 | 3.2 | 0.00 | 0.00 | 0.00 | 98 | 1012.8 |
| 20260905102358 | 24 | 15 | 0.0 | 1.6 | 0.00 | 0.00 | 0.00 | 98 | 1013.1 |
| 20260905101852 | 24 | 322 | 0.0 | 1.6 | 0.00 | 0.00 | 0.00 | 98 | 1012.7 |
| 20260905101351 | 24 | 50 | 0.0 | 0.0 | 0.00 | 0.00 | 0.00 | 97 | 1013.0 |
| 20260905100846 | 24 | 50 | 0.0 | 0.0 | 0.00 | 0.00 | 0.00 | 97 | 1013.2 |
| 20260905100341 | 24 | 315 | 0.0 | 3.2 | 0.00 | 0.00 | 0.00 | 97 | 1013.0 |
| 20260905095835 | 24 | 267 | 3.2 | 3.2 | 0.00 | 0.00 | 0.00 | 97 | 1013.0 |
| 20260905095335 | 24 | 269 | 0.0 | 3.2 | 0.00 | 0.00 | 0.00 | 97 | 1013.0 |
| 20260905094830 | 25 | 329 | 0.0 | 4.8 | 0.00 | 0.00 | 0.00 | 97 | 1013.1 |
| 20260905094326 | 25 | 308 | 0.0 | 4.8 | 0.00 | 0.00 | 0.00 | 97 | 1013.2 |
| 20260905093824 | 25 | 348 | 1.6 | 3.2 | 0.00 | 0.00 | 0.00 | 97 | 1013.0 |
| 20260905093320 | 25 | 358 | 3.2 | 4.8 | 0.00 | 0.00 | 0.00 | 97 | 1013.2 |
| 20260905092816 | 25 | 285 | 1.6 | 4.8 | 0.00 | 0.00 | 0.00 | 97 | 1013.4 |
| 20260905092316 | 25 | 288 | 3.2 | 4.8 | 0.00 | 0.00 | 0.00 | 97 | 1013.2 |
| 20260905091811 | 25 | 294 | 3.2 | 3.2 | 0.00 | 0.00 | 0.00 | 97 | 1013.1 |
| 20260905091311 | 25 | 241 | 1.6 | 3.2 | 0.00 | 0.00 | 0.00 | 97 | 1013.3 |
| 20260905090809 | 25 | 283 | 6.4 | 8.0 | 0.00 | 0.00 | 0.00 | 97 | 1013.1 |
| 20260905090305 | 25 | 279 | 4.8 | 8.0 | 0.00 | 0.00 | 0.00 | 97 | 1013.2 |
| 20260905085804 | 25 | 278 | 3.2 | 6.4 | 0.00 | 0.00 | 0.00 | 97 | 1013.0 |
| 20260905085259 | 25 | 264 | 6.4 | 8.0 | 0.00 | 0.00 | 0.00 | 97 | 1013.0 |
| 20260905084754 | 25 | 259 | 4.8 | 8.0 | 0.00 | 0.00 | 0.00 | 96 | 1013.0 |
| 20260905084254 | 25 | 260 | 3.2 | 4.8 | 0.00 | 0.00 | 0.00 | 96 | 1013.2 |